Terminal Aerodrome Forecast
Issued by NWS Sioux Falls, SD

Home | Current Version | Previous Version | Text Only | Print | Product List | Glossary On
Versions: 1 2 3 4 5 6 7 8 9 10 11 12 13 14
995
FTUS43 KFSD 261724
TAFFSD
TAF
KFSD 261724Z 2618/2718 02008KT P6SM FEW050
     FM270000 02005KT P6SM FEW250
     FM270800 16004KT P6SM FEW250
     FM271300 17010KT P6SM FEW250
     FM271500 17015G20KT P6SM FEW250=

USA.gov is the U.S. government's official web portal to all federal, state and local government web resources and services.